Time;durP1;ratioP1;P1;durP2;ratioP2;P2;SDS_P1;SDS_P2;PMS_P1;PMS_P2;Temp;Humidity;BMP_temperature;BMP_pressure;BME280_temperature;BME280_humidity;BME280_pressure;Samples;Min_cycle;Max_cycle;Signal;HPM_P1;HPM_P2
2021/12/09 00:01:07;;;;;;;36.03;15.05;;;;;;;-0.04;100.00;97920.00;4501845;31;20127;-72
2021/12/09 00:03:40;;;;;;;31.85;13.57;;;;;;;-0.11;100.00;97912.72;4502142;31;20096;-72
2021/12/09 00:06:09;;;;;;;43.20;15.27;;;;;;;-0.13;100.00;97912.00;4501866;31;20094;-72
2021/12/09 00:08:38;;;;;;;44.88;12.68;;;;;;;-0.16;100.00;97919.91;4502002;31;20161;-72
2021/12/09 00:11:07;;;;;;;38.58;15.35;;;;;;;-0.30;100.00;97920.69;4501675;31;20559;-72
2021/12/09 00:13:34;;;;;;;34.58;14.77;;;;;;;-0.15;100.00;97932.69;4501819;31;20597;-72
2021/12/09 00:16:02;;;;;;;40.97;15.30;;;;;;;-0.09;100.00;97934.06;4501582;31;20091;-72
2021/12/09 00:18:30;;;;;;;34.38;12.93;;;;;;;-0.01;100.00;97942.16;4501941;31;20117;-72
2021/12/09 00:20:57;;;;;;;27.60;12.13;;;;;;;-0.02;100.00;97930.19;4501610;31;20096;-72
2021/12/09 00:23:25;;;;;;;37.13;15.30;;;;;;;-0.03;100.00;97928.53;4487943;31;20116;-72
2021/12/09 00:25:52;;;;;;;34.15;13.73;;;;;;;-0.05;100.00;97940.69;4485888;31;20393;-72
2021/12/09 00:28:19;;;;;;;36.63;13.43;;;;;;;-0.11;100.00;97930.75;4490041;31;20133;-72
2021/12/09 00:30:46;;;;;;;33.47;11.80;;;;;;;-0.22;100.00;97914.19;4501693;31;20393;-72
2021/12/09 00:33:16;;;;;;;36.95;15.55;;;;;;;-0.15;100.00;97906.09;4501634;31;20203;-72
2021/12/09 00:36:05;;;;;;;34.05;13.65;;;;;;;-0.17;100.00;97890.75;4501533;31;20096;-72
2021/12/09 00:38:37;;;;;;;45.20;17.70;;;;;;;-0.22;100.00;97891.03;4501686;31;20104;-72
2021/12/09 00:41:13;;;;;;;32.05;11.45;;;;;;;-0.26;100.00;97887.00;4501698;31;20088;-72
2021/12/09 00:43:41;;;;;;;42.35;15.40;;;;;;;-0.37;100.00;97876.50;4501710;31;20110;-72
2021/12/09 00:46:09;;;;;;;42.53;16.00;;;;;;;-0.40;100.00;97874.09;4501261;31;20556;-72
2021/12/09 00:48:36;;;;;;;45.53;17.83;;;;;;;-0.32;100.00;97868.50;4501008;31;20127;-72
2021/12/09 00:51:06;;;;;;;44.78;17.23;;;;;;;-0.36;100.00;97865.28;4501330;31;20505;-72
2021/12/09 00:53:34;;;;;;;44.50;15.50;;;;;;;-0.46;100.00;97859.84;4501525;31;20438;-72
2021/12/09 00:56:03;;;;;;;39.58;13.38;;;;;;;-0.38;100.00;97861.97;4501348;31;20111;-72
2021/12/09 00:58:30;;;;;;;35.45;14.18;;;;;;;-0.40;100.00;97854.34;4500114;31;20088;-72
2021/12/09 01:00:57;;;;;;;42.65;17.30;;;;;;;-0.32;100.00;97851.31;4501370;31;20092;-72
2021/12/09 01:03:24;;;;;;;32.53;13.80;;;;;;;-0.38;100.00;97855.09;4501372;31;20138;-72
2021/12/09 01:05:53;;;;;;;34.70;14.57;;;;;;;-0.32;100.00;97871.88;4500021;31;20118;-72
2021/12/09 01:08:40;;;;;;;40.15;14.57;;;;;;;-0.26;100.00;97881.84;4501471;31;20088;-72
2021/12/09 01:11:08;;;;;;;31.77;14.05;;;;;;;-0.22;100.00;97867.03;4501374;31;20116;-72
2021/12/09 01:13:36;;;;;;;30.70;13.15;;;;;;;-0.32;100.00;97876.22;4501349;31;20465;-72
2021/12/09 01:16:04;;;;;;;32.50;13.32;;;;;;;-0.32;100.00;97874.47;4501327;31;20084;-72
2021/12/09 01:18:34;;;;;;;44.75;18.02;;;;;;;-0.29;100.00;97876.84;4501697;31;20118;-72
2021/12/09 01:21:03;;;;;;;53.87;19.02;;;;;;;-0.34;100.00;97884.03;4501165;31;20100;-72
2021/12/09 01:23:30;;;;;;;44.20;17.37;;;;;;;-0.34;100.00;97884.03;4486959;31;20127;-72
2021/12/09 01:26:04;;;;;;;32.58;13.43;;;;;;;-0.36;100.00;97891.03;4485710;31;20088;-72
2021/12/09 01:28:40;;;;;;;42.78;16.58;;;;;;;-0.31;100.00;97876.13;4490823;31;20129;-72
2021/12/09 01:31:08;;;;;;;44.75;16.77;;;;;;;-0.33;100.00;97867.69;4501275;31;20123;-72
2021/12/09 01:33:36;;;;;;;48.65;17.37;;;;;;;-0.42;100.00;97856.19;4501087;31;20122;-72
2021/12/09 01:36:06;;;;;;;36.30;15.38;;;;;;;-0.47;100.00;97841.94;4501213;31;20096;-72
2021/12/09 01:38:34;;;;;;;46.75;17.77;;;;;;;-0.51;100.00;97840.47;4500076;31;20168;-72
2021/12/09 01:41:03;;;;;;;58.33;19.98;;;;;;;-0.48;100.00;97840.28;4501378;31;20499;-72
2021/12/09 01:43:30;;;;;;;46.25;15.40;;;;;;;-0.49;100.00;97824.00;4501287;31;20511;-72
2021/12/09 01:46:06;;;;;;;38.90;15.98;;;;;;;-0.46;100.00;97810.16;4501177;31;20119;-72
2021/12/09 01:48:34;;;;;;;53.50;16.48;;;;;;;-0.46;100.00;97810.16;4501308;31;20087;-72
2021/12/09 01:51:02;;;;;;;36.60;13.23;;;;;;;-0.59;100.00;97828.03;4500961;31;20135;-72
2021/12/09 01:53:29;;;;;;;33.95;13.30;;;;;;;-0.55;100.00;97806.37;4501231;31;20575;-72
2021/12/09 01:56:00;;;;;;;23.92;10.27;;;;;;;-0.60;100.00;97798.94;4500861;31;20111;-72
2021/12/09 01:58:28;;;;;;;33.33;13.40;;;;;;;-0.51;100.00;97783.87;4500800;31;20428;-72
2021/12/09 02:00:55;;;;;;;33.38;12.88;;;;;;;-0.59;100.00;97786.88;4501149;31;20110;-72
2021/12/09 02:03:23;;;;;;;38.88;16.15;;;;;;;-0.51;100.00;97789.03;4500983;31;20118;-72
2021/12/09 02:05:51;;;;;;;26.42;12.32;;;;;;;-0.50;100.00;97758.06;4501293;31;20084;-72
2021/12/09 02:08:19;;;;;;;42.17;15.73;;;;;;;-0.55;100.00;97776.31;4500998;31;20092;-72
2021/12/09 02:10:48;;;;;;;29.17;13.60;;;;;;;-0.56;100.00;97777.25;4501161;31;20083;-72
2021/12/09 02:13:16;;;;;;;32.65;13.15;;;;;;;-0.53;100.00;97760.78;4500908;31;20114;-72
2021/12/09 02:15:44;;;;;;;39.67;15.40;;;;;;;-0.67;100.00;97735.09;4500835;31;20114;-72
2021/12/09 02:18:12;;;;;;;33.85;13.43;;;;;;;-0.66;100.00;97740.13;4500841;31;20084;-72
2021/12/09 02:20:43;;;;;;;30.73;12.60;;;;;;;-0.76;100.00;97770.75;4501088;31;20114;-72
2021/12/09 02:23:12;;;;;;;28.70;9.15;;;;;;;-0.69;100.00;97755.75;4488552;31;20116;-72
2021/12/09 02:25:45;;;;;;;38.22;15.00;;;;;;;-0.64;100.00;97760.63;4485222;31;20097;-72
2021/12/09 02:28:13;;;;;;;42.30;14.30;;;;;;;-0.54;100.00;97785.69;4488313;31;20096;-72
2021/12/09 02:30:42;;;;;;;33.13;12.37;;;;;;;-0.60;100.00;97770.63;4501197;31;20103;-72
2021/12/09 02:33:09;;;;;;;44.95;14.00;;;;;;;-0.52;100.00;97770.16;4498159;31;76755;-72
2021/12/09 02:35:38;;;;;;;32.47;13.43;;;;;;;-0.48;100.00;97752.81;4500968;31;20087;-72
2021/12/09 02:38:08;;;;;;;34.25;13.90;;;;;;;-0.59;100.00;97761.16;4500765;31;20100;-72
2021/12/09 02:40:35;;;;;;;41.58;14.45;;;;;;;-0.60;100.00;97764.66;4500895;31;20122;-72
2021/12/09 02:43:06;;;;;;;30.12;12.52;;;;;;;-0.61;100.00;97739.88;4500755;31;20626;-72
2021/12/09 02:45:35;;;;;;;25.33;10.68;;;;;;;-0.57;100.00;97769.63;4500850;31;20122;-72
2021/12/09 02:48:03;;;;;;;30.62;12.15;;;;;;;-0.57;100.00;97810.78;4500814;31;20600;-72
2021/12/09 02:50:30;;;;;;;26.42;12.43;;;;;;;-0.54;100.00;97808.84;4500792;31;20092;-72
2021/12/09 02:52:57;;;;;;;36.67;10.10;;;;;;;-0.46;100.00;97787.00;4500439;31;20122;-72
2021/12/09 02:55:25;;;;;;;33.85;11.40;;;;;;;-0.51;100.00;97758.16;4500857;31;20438;-72
2021/12/09 02:57:53;;;;;;;24.17;9.93;;;;;;;-0.47;100.00;97757.03;4500521;31;20118;-72
2021/12/09 03:00:21;;;;;;;31.48;12.18;;;;;;;-0.56;100.00;97766.97;4500556;31;20110;-72
2021/12/09 03:02:48;;;;;;;32.20;11.68;;;;;;;-0.52;100.00;97766.78;4500482;31;20155;-72
2021/12/09 03:05:15;;;;;;;33.97;13.07;;;;;;;-0.58;100.00;97773.13;4500762;31;20099;-72
2021/12/09 03:07:43;;;;;;;30.37;11.30;;;;;;;-0.50;100.00;97770.94;4500376;31;20088;-72
2021/12/09 03:10:21;;;;;;;25.98;11.32;;;;;;;-0.55;100.00;97731.78;4499442;31;20164;-72
2021/12/09 03:12:57;;;;;;;28.00;11.18;;;;;;;-0.54;100.00;97749.69;4500529;31;20403;-72
2021/12/09 03:15:24;;;;;;;23.45;10.15;;;;;;;-0.53;100.00;97768.50;4500636;31;20076;-72
2021/12/09 03:17:51;;;;;;;28.95;11.77;;;;;;;-0.53;100.00;97773.66;4500366;31;20105;-72
2021/12/09 03:20:19;;;;;;;23.90;10.75;;;;;;;-0.48;100.00;97784.50;4500429;31;20559;-72
2021/12/09 03:22:48;;;;;;;28.25;11.27;;;;;;;-0.52;100.00;97780.47;4490393;31;20104;-72
2021/12/09 03:25:18;;;;;;;32.00;10.63;;;;;;;-0.47;100.00;97785.31;4484476;31;20088;-72
2021/12/09 03:27:46;;;;;;;28.77;10.90;;;;;;;-0.54;100.00;97785.69;4484735;31;20580;-72
2021/12/09 03:30:17;;;;;;;31.83;12.88;;;;;;;-0.49;100.00;97756.31;4500186;31;20488;-72
2021/12/09 03:32:44;;;;;;;27.08;12.40;;;;;;;-0.49;100.00;97751.97;4499858;31;20091;-72
2021/12/09 03:35:13;;;;;;;23.67;10.00;;;;;;;-0.55;100.00;97748.03;4500051;31;20110;-72
2021/12/09 03:37:41;;;;;;;31.65;12.18;;;;;;;-0.54;100.00;97757.41;4499903;31;20088;-72
2021/12/09 03:40:09;;;;;;;24.70;10.38;;;;;;;-0.51;100.00;97755.59;4500076;31;20142;-72
2021/12/09 03:42:37;;;;;;;25.73;9.55;;;;;;;-0.49;100.00;97771.75;4498681;31;20096;-72
2021/12/09 03:45:05;;;;;;;29.35;12.40;;;;;;;-0.46;100.00;97787.00;4500014;31;20092;-72
2021/12/09 03:47:32;;;;;;;34.97;12.73;;;;;;;-0.46;100.00;97785.22;4499737;31;20186;-72
2021/12/09 03:50:01;;;;;;;37.33;11.40;;;;;;;-0.37;100.00;97786.44;4499913;31;20126;-72
2021/12/09 03:52:28;;;;;;;33.78;11.98;;;;;;;-0.37;100.00;97776.97;4499942;31;20219;-72
2021/12/09 03:54:56;;;;;;;30.00;12.85;;;;;;;-0.37;100.00;97792.41;4499558;31;20125;-72
2021/12/09 03:57:23;;;;;;;34.65;12.25;;;;;;;-0.37;100.00;97794.97;4499622;31;20089;-72
2021/12/09 03:59:50;;;;;;;26.60;10.75;;;;;;;-0.40;100.00;97797.72;4499489;31;20099;-72
2021/12/09 04:02:20;;;;;;;26.85;10.48;;;;;;;-0.44;100.00;97786.00;4499736;31;20106;-72
2021/12/09 04:04:48;;;;;;;23.77;10.15;;;;;;;-0.41;100.00;97795.25;4499660;31;20574;-72
2021/12/09 04:07:15;;;;;;;27.02;11.52;;;;;;;-0.43;100.00;97776.50;4499608;31;20158;-72
2021/12/09 04:09:43;;;;;;;32.40;11.15;;;;;;;-0.45;100.00;97770.66;4499553;31;20118;-72
2021/12/09 04:12:11;;;;;;;31.33;12.20;;;;;;;-0.45;100.00;97762.94;4499596;31;20092;-72
2021/12/09 04:14:38;;;;;;;25.80;10.75;;;;;;;-0.45;100.00;97768.06;4498194;31;20450;-72
2021/12/09 04:17:05;;;;;;;32.35;12.63;;;;;;;-0.47;100.00;97760.44;4499404;31;20089;-72
2021/12/09 04:19:32;;;;;;;33.42;13.32;;;;;;;-0.52;100.00;97764.22;4499616;31;20087;-72
2021/12/09 04:22:00;;;;;;;30.37;12.68;;;;;;;-0.56;100.00;97769.53;4495736;31;20087;-72
2021/12/09 04:24:27;;;;;;;39.03;13.38;;;;;;;-0.54;100.00;97780.56;4485896;31;20593;-72
2021/12/09 04:26:54;;;;;;;29.30;11.38;;;;;;;-0.44;100.00;97786.00;4485782;31;20096;-72
2021/12/09 04:29:22;;;;;;;27.17;9.85;;;;;;;-0.39;100.00;97789.09;4496687;31;20104;-72
2021/12/09 04:31:51;;;;;;;36.15;13.23;;;;;;;-0.39;100.00;97772.84;4501907;31;20484;-72
2021/12/09 04:34:19;;;;;;;33.40;12.57;;;;;;;-0.37;100.00;97760.69;4501649;31;20443;-72
2021/12/09 04:36:47;;;;;;;35.95;12.52;;;;;;;-0.40;100.00;97751.41;4501559;31;20123;-72
2021/12/09 04:39:14;;;;;;;25.55;10.70;;;;;;;-0.50;100.00;97744.34;4501634;31;20099;-72
2021/12/09 04:41:42;;;;;;;32.53;12.45;;;;;;;-0.39;100.00;97762.56;4500255;31;20457;-72
2021/12/09 04:44:09;;;;;;;18.67;8.57;;;;;;;-0.35;100.00;97753.69;4501574;31;20096;-72
2021/12/09 04:46:37;;;;;;;33.95;10.15;;;;;;;-0.36;100.00;97747.75;4501751;31;20169;-72
2021/12/09 04:49:05;;;;;;;33.42;12.73;;;;;;;-0.30;100.00;97748.28;4501751;31;20441;-72
2021/12/09 04:51:34;;;;;;;25.58;10.48;;;;;;;-0.41;100.00;97743.78;4501298;31;20416;-72
2021/12/09 04:54:03;;;;;;;33.00;10.98;;;;;;;-0.31;100.00;97751.78;4501797;31;20438;-72
2021/12/09 04:56:31;;;;;;;26.55;11.20;;;;;;;-0.26;100.00;97754.88;4501398;31;20115;-72
2021/12/09 04:58:58;;;;;;;33.58;11.63;;;;;;;-0.37;100.00;97746.06;4501449;31;20096;-72
2021/12/09 05:01:25;;;;;;;25.33;9.55;;;;;;;-0.32;100.00;97758.66;4501588;31;20092;-72
2021/12/09 05:03:53;;;;;;;28.77;10.88;;;;;;;-0.23;100.00;97762.41;4501428;31;20112;-72
2021/12/09 05:06:21;;;;;;;21.17;9.75;;;;;;;-0.17;100.00;97754.31;4501015;31;20119;-72
2021/12/09 05:08:49;;;;;;;28.33;12.37;;;;;;;-0.14;100.00;97741.25;4501338;31;20122;-72
2021/12/09 05:14:04;;;;;;;24.35;9.70;;;;;;;-0.06;100.00;97759.66;4501381;31;20081;-72
2021/12/09 05:16:32;;;;;;;25.65;9.93;;;;;;;-0.09;100.00;97761.56;4501217;31;20096;-72
2021/12/09 05:19:00;;;;;;;25.48;9.82;;;;;;;-0.04;100.00;97772.44;4501364;31;20159;-73
2021/12/09 05:21:37;;;;;;;31.05;11.23;;;;;;;-0.09;100.00;97774.44;4500158;31;20126;-72
2021/12/09 05:24:12;;;;;;;27.13;11.27;;;;;;;-0.17;100.00;97764.62;4485778;31;20129;-72
2021/12/09 05:26:50;;;;;;;26.25;9.15;;;;;;;-0.05;100.00;97756.12;4485473;31;20533;-72
2021/12/09 05:29:21;;;;;;;25.60;10.43;;;;;;;-0.03;100.00;97754.31;4495819;31;20490;-72
2021/12/09 05:34:45;;;;;;;22.27;8.98;;;;;;;-0.06;100.00;97736.47;4500016;31;20141;-72
2021/12/09 05:37:16;;;;;;;21.23;7.72;;;;;;;0.03;100.00;97729.09;4491854;31;20096;-72
2021/12/09 05:39:45;;;;;;;20.17;8.63;;;;;;;0.05;100.00;97715.19;4498136;31;20581;-72
2021/12/09 05:42:14;;;;;;;20.40;9.48;;;;;;;0.11;100.00;97719.97;4491293;31;20087;-72
2021/12/09 05:44:41;;;;;;;16.30;7.12;;;;;;;0.07;100.00;97718.50;4496530;31;20096;-72
2021/12/09 05:47:09;;;;;;;27.02;9.80;;;;;;;0.03;100.00;97709.34;4501207;31;20104;-72
2021/12/09 05:49:38;;;;;;;21.48;9.40;;;;;;;0.06;100.00;97708.28;4501113;31;20129;-72
2021/12/09 05:52:06;;;;;;;17.98;8.20;;;;;;;-0.04;100.00;97690.03;4495697;31;20080;-72
2021/12/09 05:54:35;;;;;;;22.17;10.38;;;;;;;-0.05;100.00;97676.31;4500706;31;20479;-71
2021/12/09 05:57:02;;;;;;;22.98;10.75;;;;;;;-0.15;100.00;97683.00;4500932;31;20122;-72
2021/12/09 05:59:29;;;;;;;27.13;10.40;;;;;;;-0.12;100.00;97682.81;4498636;31;20104;-71
2021/12/09 06:01:57;;;;;;;29.60;11.30;;;;;;;-0.16;100.00;97670.22;4500717;31;20122;-72
2021/12/09 06:04:25;;;;;;;17.12;7.47;;;;;;;-0.24;100.00;97673.28;4497266;31;20100;-72
2021/12/09 06:06:52;;;;;;;23.00;10.88;;;;;;;-0.24;100.00;97670.72;4500233;31;20089;-72
2021/12/09 06:09:20;;;;;;;20.80;11.23;;;;;;;-0.26;100.00;97675.97;4495164;31;20466;-72
2021/12/09 06:11:49;;;;;;;34.35;11.00;;;;;;;-0.19;100.00;97690.06;4493812;31;20087;-72
2021/12/09 06:14:17;;;;;;;20.83;10.52;;;;;;;-0.24;100.00;97666.38;4497723;31;20104;-72
2021/12/09 06:16:45;;;;;;;26.48;11.90;;;;;;;-0.21;100.00;97673.91;4497712;31;20160;-72
2021/12/09 06:19:13;;;;;;;33.58;12.85;;;;;;;-0.12;100.00;97666.50;4487866;31;20138;-72
2021/12/09 06:21:40;;;;;;;18.23;8.50;;;;;;;-0.25;100.00;97666.47;4479954;31;20865;-72
2021/12/09 06:24:07;;;;;;;22.27;10.68;;;;;;;-0.22;100.00;97663.72;4483298;31;20488;-72
2021/12/09 06:26:35;;;;;;;27.30;12.93;;;;;;;-0.42;100.00;97659.81;4482874;31;20123;-72
2021/12/09 06:29:02;;;;;;;32.53;11.48;;;;;;;-0.23;100.00;97649.19;4483995;31;20096;-72
2021/12/09 06:31:29;;;;;;;32.90;13.38;;;;;;;-0.19;100.00;97646.31;4483316;31;20099;-72
2021/12/09 06:33:57;;;;;;;20.20;10.13;;;;;;;-0.13;100.00;97649.44;4484271;32;20134;-72
2021/12/09 06:36:24;;;;;;;40.90;15.65;;;;;;;-0.13;100.00;97654.59;4483343;31;20119;-72
2021/12/09 06:38:51;;;;;;;39.40;15.52;;;;;;;-0.19;100.00;97641.16;4484362;31;20482;-72
2021/12/09 06:41:19;;;;;;;28.10;12.85;;;;;;;-0.13;100.00;97659.75;4483075;31;20092;-72
2021/12/09 06:43:46;;;;;;;32.25;14.52;;;;;;;-0.29;100.00;97665.00;4483537;31;20115;-72
2021/12/09 06:46:14;;;;;;;32.13;14.18;;;;;;;-0.14;100.00;97660.66;4483752;31;20105;-72
2021/12/09 06:48:42;;;;;;;31.20;11.15;;;;;;;-0.15;100.00;97659.84;4485104;31;20453;-73
2021/12/09 06:51:09;;;;;;;35.80;13.25;;;;;;;-0.17;100.00;97669.37;4485972;31;20095;-73
2021/12/09 06:53:37;;;;;;;31.67;12.60;;;;;;;-0.21;100.00;97676.47;4488196;31;20177;-72
2021/12/09 06:56:05;;;;;;;37.78;11.52;;;;;;;-0.23;100.00;97682.63;4487631;31;20447;-73
2021/12/09 06:58:32;;;;;;;32.50;13.00;;;;;;;-0.13;100.00;97688.88;4486417;31;20087;-72
2021/12/09 07:01:01;;;;;;;33.70;12.48;;;;;;;-0.17;100.00;97702.84;4499077;31;20103;-72
2021/12/09 07:03:29;;;;;;;24.90;9.85;;;;;;;-0.13;100.00;97691.44;4489080;31;20580;-73
2021/12/09 07:06:01;;;;;;;29.90;13.02;;;;;;;-0.08;100.00;97693.72;4484629;31;20104;-72
2021/12/09 07:08:28;;;;;;;29.60;12.50;;;;;;;-0.03;100.00;97687.38;4493735;31;20104;-73
2021/12/09 07:10:56;;;;;;;29.08;12.55;;;;;;;-0.10;100.00;97677.56;4486391;31;20122;-73
2021/12/09 07:13:23;;;;;;;23.17;11.35;;;;;;;-0.11;100.00;97694.72;4487528;31;20100;-74
2021/12/09 07:15:50;;;;;;;33.28;13.68;;;;;;;-0.11;100.00;97696.50;4485673;31;20126;-72
2021/12/09 07:18:22;;;;;;;25.58;9.95;;;;;;;-0.15;100.00;97695.03;4484300;31;20100;-72
2021/12/09 07:20:49;;;;;;;24.75;9.38;;;;;;;-0.15;100.00;97697.59;4488221;31;20125;-73
2021/12/09 07:23:16;;;;;;;32.13;13.43;;;;;;;-0.10;100.00;97680.12;4488533;31;20084;-73
2021/12/09 07:25:44;;;;;;;24.70;11.82;;;;;;;-0.11;100.00;97669.00;4490136;31;20100;-73
2021/12/09 07:28:11;;;;;;;28.52;12.10;;;;;;;-0.09;100.00;97676.63;4488403;31;20111;-72
2021/12/09 07:30:39;;;;;;;42.33;12.35;;;;;;;-0.23;100.00;97662.06;4490408;31;20096;-73
2021/12/09 07:33:06;;;;;;;23.05;9.85;;;;;;;-0.05;100.00;97660.87;4489133;31;20141;-73
2021/12/09 07:35:33;;;;;;;40.80;12.75;;;;;;;-0.19;100.00;97648.06;4492989;31;20100;-73
2021/12/09 07:38:02;;;;;;;31.27;12.75;;;;;;;-0.03;100.00;97664.19;4489298;31;20096;-73
2021/12/09 07:40:31;;;;;;;39.08;14.50;;;;;;;-0.20;100.00;97661.84;4488135;31;20104;-73
2021/12/09 07:42:58;;;;;;;44.20;13.73;;;;;;;-0.15;100.00;97661.56;4490592;31;20104;-73
2021/12/09 07:45:26;;;;;;;28.52;12.10;;;;;;;-0.10;100.00;97659.53;4490595;31;20111;-72
2021/12/09 07:47:53;;;;;;;27.80;12.18;;;;;;;0.02;100.00;97658.75;4494631;31;20118;-73
2021/12/09 07:50:24;;;;;;;29.45;11.90;;;;;;;0.04;100.00;97654.31;4484985;31;20095;-73
2021/12/09 07:52:51;;;;;;;28.38;11.85;;;;;;;-0.06;100.00;97635.22;4482737;31;20093;-72
2021/12/09 07:55:20;;;;;;;34.83;14.00;;;;;;;-0.11;100.00;97648.41;4482932;31;20092;-72
2021/12/09 07:57:48;;;;;;;39.55;12.63;;;;;;;-0.17;100.00;97637.69;4485199;31;20099;-73
2021/12/09 08:00:23;;;;;;;25.10;10.85;;;;;;;-0.12;100.00;97633.06;4485086;31;20163;-73
2021/12/09 08:02:51;;;;;;;28.98;11.18;;;;;;;-0.19;100.00;97620.56;4485107;31;20104;-73
2021/12/09 08:05:19;;;;;;;30.58;12.23;;;;;;;-0.21;100.00;97601.84;4484362;31;20100;-73
2021/12/09 08:07:47;;;;;;;26.17;11.23;;;;;;;-0.16;100.00;97605.88;4485215;31;20100;-73
2021/12/09 08:10:17;;;;;;;24.30;9.93;;;;;;;-0.23;100.00;97624.28;4483465;32;20461;-73
2021/12/09 08:12:44;;;;;;;29.45;12.57;;;;;;;-0.25;100.00;97620.16;4482365;31;20080;-72
2021/12/09 08:15:27;;;;;;;27.50;11.00;;;;;;;-0.30;100.00;97633.31;4482292;32;20092;-72
2021/12/09 08:18:01;;;;;;;21.85;9.25;;;;;;;0.50;100.00;97637.59;4482100;31;20088;-72
2021/12/09 08:20:32;;;;;;;30.05;13.57;;;;;;;0.42;100.00;97640.69;4482382;31;20100;-72
2021/12/09 08:22:59;;;;;;;31.98;11.30;;;;;;;0.49;100.00;97651.44;4483335;31;20100;-72
2021/12/09 08:25:26;;;;;;;30.88;10.48;;;;;;;0.38;100.00;97635.84;4489394;31;20153;-72
2021/12/09 08:27:54;;;;;;;31.20;12.37;;;;;;;0.31;100.00;97617.41;4489337;31;20096;-72
2021/12/09 08:30:22;;;;;;;25.95;10.90;;;;;;;0.13;100.00;97625.38;4484681;31;20151;-73
2021/12/09 08:33:10;;;;;;;32.03;12.75;;;;;;;-0.09;100.00;97614.84;4485386;31;20498;-72
2021/12/09 08:35:37;;;;;;;26.00;10.60;;;;;;;0.11;100.00;97608.41;4485297;31;20076;-76
2021/12/09 08:38:06;;;;;;;31.73;12.43;;;;;;;0.27;100.00;97609.06;4485112;31;20080;-76
2021/12/09 08:40:35;;;;;;;28.83;13.02;;;;;;;0.03;100.00;97603.75;4484956;31;20477;-75
2021/12/09 08:43:03;;;;;;;28.30;12.95;;;;;;;0.13;100.00;97609.94;4485186;31;20115;-76
2021/12/09 08:45:31;;;;;;;19.65;9.75;;;;;;;0.54;100.00;97618.44;4485295;31;20104;-75
2021/12/09 08:47:58;;;;;;;21.52;9.32;;;;;;;0.67;100.00;97605.56;4485629;31;20100;-75
2021/12/09 08:50:32;;;;;;;26.37;10.38;;;;;;;0.66;100.00;97596.19;4491890;31;20106;-77
2021/12/09 08:53:04;;;;;;;23.50;8.55;;;;;;;0.72;100.00;97610.41;4484645;31;20115;-76
2021/12/09 08:55:32;;;;;;;20.50;7.62;;;;;;;0.68;100.00;97602.03;4498190;31;20395;-79
2021/12/09 08:57:59;;;;;;;23.87;8.55;;;;;;;0.49;100.00;97594.75;4500672;31;20155;-78
2021/12/09 09:00:29;;;;;;;28.30;12.02;;;;;;;0.68;100.00;97607.19;4499981;31;20091;-75
2021/12/09 09:02:58;;;;;;;20.25;8.02;;;;;;;0.74;100.00;97608.53;4498975;31;20167;-74
2021/12/09 09:05:26;;;;;;;18.05;8.27;;;;;;;0.66;100.00;97611.62;4499127;31;20088;-77
2021/12/09 09:07:54;;;;;;;21.60;9.05;;;;;;;0.96;100.00;97616.47;4497824;31;20148;-75
2021/12/09 09:10:24;;;;;;;24.58;10.38;;;;;;;0.60;99.66;97622.37;4498998;31;20088;-76
2021/12/09 09:12:52;;;;;;;17.05;7.95;;;;;;;0.52;100.00;97615.97;4493096;31;20499;-74
2021/12/09 09:15:21;;;;;;;24.85;11.73;;;;;;;0.62;100.00;97620.50;4483727;31;20104;-76
2021/12/09 09:17:48;;;;;;;24.33;9.93;;;;;;;0.52;100.00;97615.16;4485054;31;20096;-77
2021/12/09 09:20:18;;;;;;;21.50;9.77;;;;;;;0.45;100.00;97617.28;4485187;31;20131;-75
2021/12/09 09:22:45;;;;;;;32.97;10.80;;;;;;;0.46;100.00;97618.13;4494335;31;20170;-74
2021/12/09 09:25:17;;;;;;;24.50;10.48;;;;;;;0.45;100.00;97617.28;4500789;31;20081;-75
2021/12/09 09:27:45;;;;;;;24.67;10.00;;;;;;;0.38;100.00;97618.66;4500865;31;20088;-74
2021/12/09 09:30:17;;;;;;;26.58;9.98;;;;;;;0.64;100.00;97628.97;4484508;31;20114;-74
2021/12/09 09:32:46;;;;;;;21.20;9.82;;;;;;;0.64;100.00;97608.34;4483575;31;20084;-73
2021/12/09 09:35:14;;;;;;;18.98;8.48;;;;;;;0.70;100.00;97597.63;4480526;32;20552;-74
2021/12/09 09:37:42;;;;;;;23.73;9.73;;;;;;;0.67;100.00;97596.06;4485048;31;20476;-73
2021/12/09 09:40:12;;;;;;;31.80;11.88;;;;;;;0.73;100.00;97581.94;4489054;31;20103;-72
2021/12/09 09:45:10;;;;;;;26.35;9.45;;;;;;;0.70;100.00;97579.59;4488793;31;20500;-74
2021/12/09 09:47:38;;;;;;;20.62;9.00;;;;;;;0.53;100.00;97570.44;4499460;31;20508;-74
2021/12/09 09:50:11;;;;;;;29.33;10.82;;;;;;;0.57;100.00;97571.03;4486844;31;20167;-74
2021/12/09 09:52:40;;;;;;;26.52;10.10;;;;;;;0.62;100.00;97571.53;4498846;31;20076;-76
2021/12/09 09:55:09;;;;;;;30.17;11.48;;;;;;;0.64;100.00;97580.00;4499823;31;20119;-74
2021/12/09 09:57:37;;;;;;;22.08;9.98;;;;;;;0.70;100.00;97566.69;4494375;31;20890;-75
2021/12/09 10:00:07;;;;;;;23.55;10.10;;;;;;;0.82;100.00;97539.25;4484635;31;20092;-75
2021/12/09 10:02:35;;;;;;;24.33;10.68;;;;;;;1.05;100.00;97555.69;4483101;31;20144;-75
2021/12/09 10:05:06;;;;;;;26.98;10.85;;;;;;;0.71;100.00;97550.28;4485249;31;20184;-76
2021/12/09 10:07:35;;;;;;;25.55;11.27;;;;;;;0.73;100.00;97550.19;4483621;32;20489;-78
2021/12/09 10:10:05;;;;;;;27.55;10.55;;;;;;;0.78;100.00;97559.25;4483167;32;20114;-74
2021/12/09 10:12:32;;;;;;;32.38;12.82;;;;;;;0.58;100.00;97552.06;4482453;31;20383;-75
2021/12/09 10:14:59;;;;;;;25.05;10.73;;;;;;;0.90;100.00;97523.25;4483485;32;20104;-74
2021/12/09 10:17:27;;;;;;;28.55;10.73;;;;;;;0.84;100.00;97525.31;4499571;31;20505;-75
2021/12/09 10:20:09;;;;;;;22.35;9.77;;;;;;;0.56;100.00;97518.69;4487052;31;20482;-75
2021/12/09 10:22:38;;;;;;;25.62;10.25;;;;;;;0.73;100.00;97525.25;4488427;31;20455;-74
2021/12/09 10:25:20;;;;;;;21.73;9.70;;;;;;;0.63;100.00;97512.16;4482677;32;20201;-74
2021/12/09 10:27:57;;;;;;;29.48;11.00;;;;;;;0.76;100.00;97511.28;4484312;31;20540;-75
2021/12/09 10:30:25;;;;;;;26.20;10.75;;;;;;;0.66;100.00;97508.53;4499558;31;20095;-74
2021/12/09 10:33:00;;;;;;;29.10;10.65;;;;;;;0.73;100.00;97539.87;4499840;31;20076;-75
2021/12/09 10:35:28;;;;;;;23.42;10.40;;;;;;;0.82;100.00;97552.97;4499769;31;20142;-74
2021/12/09 10:37:55;;;;;;;24.98;9.80;;;;;;;0.77;100.00;97561.94;4500449;31;20159;-74
2021/12/09 10:40:26;;;;;;;19.52;7.75;;;;;;;0.92;100.00;97542.00;4500443;31;20088;-74
2021/12/09 10:42:57;;;;;;;20.70;9.80;;;;;;;0.93;100.00;97556.56;4490849;31;20145;-76
2021/12/09 10:45:30;;;;;;;27.98;9.88;;;;;;;1.02;100.00;97553.31;4483782;31;20089;-74
2021/12/09 10:55:54;;;;;;;24.70;10.02;;;;;;;0.77;100.00;97536.97;4496926;31;20124;-76
2021/12/09 10:58:29;;;;;;;24.15;10.07;;;;;;;0.80;100.00;97541.09;4484834;31;20487;-75
2021/12/09 11:01:06;;;;;;;26.75;10.93;;;;;;;0.74;100.00;97547.50;4482621;31;20219;-76
2021/12/09 11:03:40;;;;;;;32.60;13.27;;;;;;;0.65;100.00;97546.41;4483093;31;20072;-77
2021/12/09 11:06:19;;;;;;;28.62;11.82;;;;;;;0.81;100.00;97542.75;4482881;31;20427;-75
2021/12/09 11:08:53;;;;;;;26.73;10.15;;;;;;;0.73;100.00;97540.72;4484583;31;20088;-75
2021/12/09 11:11:41;;;;;;;25.65;9.55;;;;;;;0.70;100.00;97533.19;4493338;31;20108;-75
2021/12/09 11:14:12;;;;;;;22.02;10.23;;;;;;;1.09;100.00;97533.91;4500230;31;20736;-75
2021/12/09 11:16:45;;;;;;;21.08;8.60;;;;;;;0.92;100.00;97529.09;4499247;31;20160;-74
2021/12/09 11:19:16;;;;;;;26.00;9.48;;;;;;;0.76;100.00;97522.44;4498137;31;20088;-73
2021/12/09 11:21:55;;;;;;;30.90;11.77;;;;;;;0.81;100.00;97498.94;4492767;31;20091;-73
2021/12/09 11:24:24;;;;;;;39.30;12.23;;;;;;;0.75;100.00;97513.06;4499509;31;20108;-73
2021/12/09 11:26:58;;;;;;;26.40;9.93;;;;;;;0.55;100.00;97495.59;4499498;31;20099;-73
2021/12/09 11:29:34;;;;;;;;;;;;;;;0.74;100.00;97483.03;4488684;31;20096;-74
2021/12/09 11:32:26;;;;;;;39.00;14.87;;;;;;;0.86;100.00;97494.25;4484911;31;19972;-74
2021/12/09 11:35:27;;;;;;;36.08;13.07;;;;;;;0.75;100.00;97495.00;4485743;31;20738;-74
2021/12/09 11:38:18;;;;;;;35.30;13.02;;;;;;;0.80;100.00;97497.28;4486208;31;20084;-74
2021/12/09 11:40:50;;;;;;;25.02;9.63;;;;;;;0.78;100.00;97501.72;4488604;31;20096;-75